createdAt,value
2023-04-27T00:00:02.296Z,18.92
2023-04-27T00:02:36.169Z,21.15
2023-04-27T00:05:04.017Z,15.27
2023-04-27T00:07:31.826Z,18.52
2023-04-27T00:09:58.769Z,12.90
2023-04-27T00:12:25.795Z,12.68
2023-04-27T00:14:52.826Z,11.50
2023-04-27T00:17:19.783Z,11.35
2023-04-27T00:19:47.618Z,13.27
2023-04-27T00:22:14.533Z,11.77
2023-04-27T00:24:41.883Z,11.65
2023-04-27T00:27:08.897Z,12.20
2023-04-27T00:29:35.946Z,11.23
2023-04-27T00:32:02.956Z,11.32
2023-04-27T00:34:30.048Z,11.88
2023-04-27T00:36:57.857Z,12.40
2023-04-27T00:39:24.917Z,11.40
2023-04-27T00:41:51.907Z,11.35
2023-04-27T00:44:24.961Z,11.25
2023-04-27T00:46:52.836Z,11.25
2023-04-27T00:49:24.038Z,12.85
2023-04-27T00:51:51.600Z,12.10
2023-04-27T00:54:23.981Z,12.70
2023-04-27T00:56:52.117Z,9.73
2023-04-27T00:59:20.243Z,12.40
2023-04-27T01:01:47.703Z,13.60
2023-04-27T01:04:15.086Z,12.32
2023-04-27T01:06:42.660Z,13.10
2023-04-27T01:09:09.880Z,13.40
2023-04-27T01:11:36.965Z,12.77
2023-04-27T01:14:06.893Z,12.80
2023-04-27T01:16:34.670Z,13.35
2023-04-27T01:19:02.465Z,13.68
2023-04-27T01:21:29.537Z,13.82
2023-04-27T01:23:58.753Z,13.13
2023-04-27T01:26:26.090Z,13.70
2023-04-27T01:28:53.042Z,12.93
2023-04-27T01:31:20.319Z,12.85
2023-04-27T01:33:47.304Z,12.55
2023-04-27T01:36:14.346Z,13.13
2023-04-27T01:38:41.726Z,13.82
2023-04-27T01:41:09.364Z,13.05
2023-04-27T01:43:39.665Z,12.30
2023-04-27T01:46:11.562Z,8.43
2023-04-27T01:48:39.835Z,12.40
2023-04-27T01:51:07.010Z,14.10
2023-04-27T01:53:34.393Z,12.43
2023-04-27T01:56:01.840Z,13.82
2023-04-27T01:58:29.058Z,14.77
2023-04-27T02:00:56.082Z,13.82
2023-04-27T02:03:23.200Z,7.03
2023-04-27T02:05:50.933Z,13.38
2023-04-27T02:08:19.754Z,12.68
2023-04-27T02:10:46.825Z,13.98
2023-04-27T02:13:13.838Z,10.68
2023-04-27T02:15:40.841Z,7.32
2023-04-27T02:18:07.948Z,13.25
2023-04-27T02:20:35.028Z,13.52
2023-04-27T02:23:02.371Z,12.48
2023-04-27T02:25:29.463Z,13.50
2023-04-27T02:27:56.881Z,13.07
2023-04-27T02:30:24.499Z,13.32
2023-04-27T02:32:52.090Z,12.98
2023-04-27T02:35:19.141Z,13.18
2023-04-27T02:37:46.184Z,12.93
2023-04-27T02:40:15.619Z,12.52
2023-04-27T02:42:42.624Z,13.57
2023-04-27T02:45:11.673Z,13.73
2023-04-27T02:47:38.767Z,13.27
2023-04-27T02:50:06.273Z,12.88
2023-04-27T02:52:35.130Z,13.35
2023-04-27T02:55:02.152Z,13.48
2023-04-27T02:57:29.248Z,13.00
2023-04-27T02:59:56.317Z,14.10
2023-04-27T03:02:23.361Z,14.45
2023-04-27T03:04:54.973Z,14.23
2023-04-27T03:07:22.546Z,13.10
2023-04-27T03:09:49.514Z,12.82
2023-04-27T03:12:16.540Z,14.63
2023-04-27T03:14:43.485Z,14.60
2023-04-27T03:17:10.557Z,8.93
2023-04-27T03:19:37.595Z,13.95
2023-04-27T03:22:04.612Z,14.27
2023-04-27T03:24:31.727Z,15.23
2023-04-27T03:26:58.708Z,14.45
2023-04-27T03:29:25.672Z,7.47
2023-04-27T03:31:52.946Z,13.85
2023-04-27T03:34:21.817Z,14.43
2023-04-27T03:36:49.133Z,14.05
2023-04-27T03:39:16.378Z,9.60
2023-04-27T03:41:43.505Z,15.05
2023-04-27T03:44:10.862Z,14.13
2023-04-27T03:46:37.900Z,14.25
2023-04-27T03:49:05.448Z,15.40
2023-04-27T03:51:33.451Z,15.73
2023-04-27T03:54:00.492Z,14.27
2023-04-27T03:56:28.056Z,15.85
2023-04-27T03:58:56.113Z,9.20
2023-04-27T04:01:30.896Z,15.57
2023-04-27T04:03:58.989Z,15.95
2023-04-27T04:06:26.176Z,15.55
2023-04-27T04:08:53.148Z,15.85
2023-04-27T04:11:20.232Z,15.45
2023-04-27T04:13:47.506Z,14.80
2023-04-27T04:16:15.007Z,13.60
2023-04-27T04:18:42.236Z,15.00
2023-04-27T04:21:13.850Z,16.35
2023-04-27T04:23:41.283Z,10.77
2023-04-27T04:26:09.044Z,11.10
2023-04-27T04:28:37.171Z,14.77
2023-04-27T04:31:05.750Z,9.57
2023-04-27T04:33:33.276Z,15.43
2023-04-27T04:36:03.155Z,15.10
2023-04-27T04:38:31.339Z,8.93
2023-04-27T04:40:59.302Z,14.23
2023-04-27T04:43:26.823Z,16.75
2023-04-27T04:45:54.172Z,15.30
2023-04-27T04:48:22.308Z,10.73
2023-04-27T04:50:49.224Z,9.63
2023-04-27T04:53:16.340Z,15.23
2023-04-27T04:55:43.342Z,15.38
2023-04-27T04:58:10.827Z,14.90
2023-04-27T05:00:38.255Z,15.77
2023-04-27T05:03:07.820Z,7.82
2023-04-27T05:05:35.077Z,12.82
2023-04-27T05:08:02.035Z,9.60
2023-04-27T05:10:29.104Z,15.68
2023-04-27T05:12:56.115Z,15.23
2023-04-27T05:15:23.165Z,15.25
2023-04-27T05:17:50.117Z,13.90
2023-04-27T05:20:17.140Z,15.68
2023-04-27T05:22:44.102Z,15.57
2023-04-27T05:25:11.273Z,15.43
2023-04-27T05:27:38.222Z,15.38
2023-04-27T05:30:05.729Z,7.88
2023-04-27T05:32:33.882Z,16.02
2023-04-27T05:35:00.965Z,15.05
2023-04-27T05:37:27.880Z,8.40
2023-04-27T05:39:54.823Z,7.72
2023-04-27T05:42:21.837Z,13.23
2023-04-27T05:44:48.847Z,15.27
2023-04-27T05:47:16.670Z,14.85
2023-04-27T05:49:43.812Z,8.77
2023-04-27T05:52:10.806Z,15.07
2023-04-27T05:54:37.862Z,16.33
2023-04-27T05:57:04.834Z,15.63
2023-04-27T05:59:31.856Z,16.63
2023-04-27T06:01:59.089Z,15.57
2023-04-27T06:04:26.565Z,7.75
2023-04-27T06:06:53.667Z,14.45
2023-04-27T06:09:20.716Z,9.85
2023-04-27T06:11:47.641Z,16.20
2023-04-27T06:14:14.772Z,16.77
2023-04-27T06:16:41.935Z,7.93
2023-04-27T06:19:13.023Z,15.32
2023-04-27T06:21:40.851Z,7.90
2023-04-27T06:24:07.970Z,8.25
2023-04-27T06:26:34.999Z,14.02
2023-04-27T06:29:04.249Z,15.15
2023-04-27T06:31:31.342Z,7.45
2023-04-27T06:33:58.334Z,13.20
2023-04-27T06:36:27.913Z,13.15
2023-04-27T06:38:56.481Z,8.07
2023-04-27T06:41:24.405Z,13.35
2023-04-27T06:43:51.697Z,7.88
2023-04-27T06:46:19.117Z,13.07
2023-04-27T06:48:46.601Z,13.80
2023-04-27T06:51:13.683Z,13.50
2023-04-27T06:53:40.850Z,13.40
2023-04-27T06:56:11.706Z,14.13
2023-04-27T06:58:38.782Z,8.90
2023-04-27T07:01:05.873Z,12.85
2023-04-27T07:03:36.584Z,12.90
2023-04-27T07:06:04.217Z,13.48
2023-04-27T07:08:31.379Z,11.00
2023-04-27T07:10:58.765Z,8.15
2023-04-27T07:13:25.846Z,13.45
2023-04-27T07:15:59.138Z,13.82
2023-04-27T07:18:28.090Z,12.90
2023-04-27T07:20:56.089Z,12.93
2023-04-27T07:23:23.180Z,12.00
2023-04-27T07:25:50.465Z,12.35
2023-04-27T07:28:17.590Z,12.20
2023-04-27T07:30:44.866Z,12.80
2023-04-27T07:33:11.949Z,12.68
2023-04-27T07:35:39.667Z,12.18
2023-04-27T07:38:07.686Z,12.73
2023-04-27T07:40:34.887Z,12.15
2023-04-27T07:43:02.541Z,12.45
2023-04-27T07:45:33.123Z,11.90
2023-04-27T07:48:02.280Z,11.85
2023-04-27T07:50:30.295Z,11.95
2023-04-27T07:52:58.059Z,12.13
2023-04-27T07:55:25.929Z,11.75
2023-04-27T07:57:54.208Z,11.82
2023-04-27T08:00:22.387Z,11.75
2023-04-27T08:02:50.844Z,11.75
2023-04-27T08:05:18.329Z,11.82
2023-04-27T08:07:45.988Z,10.40
2023-04-27T08:10:13.809Z,11.02
2023-04-27T08:14:50.554Z,11.57
2023-04-27T08:17:22.025Z,10.60
2023-04-27T08:19:49.063Z,10.85
2023-04-27T08:22:16.155Z,10.75
2023-04-27T08:24:43.229Z,10.90
2023-04-27T08:27:10.250Z,11.38
2023-04-27T08:29:37.406Z,10.70
2023-04-27T08:32:05.780Z,10.38
2023-04-27T08:34:32.861Z,9.85
2023-04-27T08:37:00.643Z,9.70
2023-04-27T08:39:28.013Z,9.60
2023-04-27T08:41:55.005Z,10.07
2023-04-27T08:44:22.126Z,8.48
2023-04-27T08:46:49.307Z,8.85
2023-04-27T08:49:17.337Z,8.82
2023-04-27T08:51:44.686Z,8.55
2023-04-27T08:54:11.661Z,8.85
2023-04-27T08:56:39.324Z,8.95
2023-04-27T08:59:17.866Z,8.82
2023-04-27T09:01:49.006Z,8.63
2023-04-27T09:04:17.894Z,9.30
2023-04-27T09:06:45.604Z,8.57
2023-04-27T09:09:23.638Z,8.23
2023-04-27T09:11:51.355Z,8.55
2023-04-27T09:14:20.642Z,8.55
2023-04-27T09:16:57.550Z,8.55
2023-04-27T09:19:26.521Z,8.57
2023-04-27T09:22:11.249Z,9.77
2023-04-27T09:24:38.908Z,8.93
2023-04-27T09:27:07.554Z,8.60
2023-04-27T09:29:38.756Z,9.07
2023-04-27T09:32:20.761Z,8.43
2023-04-27T09:34:48.181Z,9.18
2023-04-27T09:37:15.695Z,8.60
2023-04-27T09:39:43.602Z,8.70
2023-04-27T09:42:12.634Z,10.23
2023-04-27T09:44:39.696Z,14.70
2023-04-27T09:47:07.461Z,10.68
2023-04-27T09:49:36.052Z,10.30
2023-04-27T09:52:03.055Z,8.35
2023-04-27T09:54:33.556Z,8.50
2023-04-27T09:57:19.116Z,7.95
2023-04-27T10:00:11.221Z,8.27
2023-04-27T10:02:53.933Z,8.80
2023-04-27T10:05:24.253Z,8.63
2023-04-27T10:07:52.689Z,8.18
2023-04-27T10:10:20.488Z,7.78
2023-04-27T10:13:01.531Z,7.53
2023-04-27T10:15:29.957Z,7.95
2023-04-27T10:18:03.505Z,7.03
2023-04-27T10:20:37.768Z,7.20
2023-04-27T10:23:04.878Z,7.00
2023-04-27T10:25:42.080Z,7.13
2023-04-27T10:28:16.403Z,6.15
2023-04-27T10:30:49.270Z,6.60
2023-04-27T10:33:19.091Z,5.93
2023-04-27T10:35:56.531Z,6.45
2023-04-27T10:38:29.407Z,6.18
2023-04-27T10:41:05.607Z,7.00
2023-04-27T10:43:36.290Z,6.32
2023-04-27T10:46:16.495Z,6.88
2023-04-27T10:48:44.437Z,6.38
2023-04-27T10:51:16.687Z,6.53
2023-04-27T10:53:44.102Z,7.10
2023-04-27T10:56:11.202Z,6.50
2023-04-27T11:01:09.293Z,5.90
2023-04-27T11:03:36.700Z,5.63
2023-04-27T11:06:06.284Z,6.30
2023-04-27T11:08:36.487Z,6.60
2023-04-27T11:11:05.108Z,6.93
2023-04-27T11:13:33.660Z,7.03
2023-04-27T11:16:00.994Z,5.90
2023-04-27T11:18:33.698Z,6.05
2023-04-27T11:21:15.164Z,6.20
2023-04-27T11:23:42.872Z,6.40
2023-04-27T11:26:11.467Z,6.65
2023-04-27T11:28:39.246Z,6.82
2023-04-27T11:31:07.292Z,5.20
2023-04-27T11:33:35.957Z,4.68
2023-04-27T11:36:03.559Z,5.63
2023-04-27T11:38:34.334Z,6.07
2023-04-27T11:41:07.840Z,5.85
2023-04-27T11:43:35.441Z,6.07
2023-04-27T11:46:06.993Z,4.90
2023-04-27T11:48:37.640Z,5.07
2023-04-27T11:51:05.919Z,5.47
2023-04-27T11:53:38.300Z,5.75
2023-04-27T11:56:10.765Z,5.75
2023-04-27T11:58:39.060Z,5.78
2023-04-27T12:01:06.797Z,4.85
2023-04-27T12:03:34.332Z,5.60
2023-04-27T12:08:31.933Z,4.65
2023-04-27T12:10:59.004Z,5.10
2023-04-27T12:13:26.076Z,4.90
2023-04-27T12:15:53.025Z,4.18
2023-04-27T12:18:20.797Z,4.05
2023-04-27T12:20:47.841Z,4.07
2023-04-27T12:23:14.849Z,4.97
2023-04-27T12:25:44.104Z,4.90
2023-04-27T12:28:12.258Z,4.65
2023-04-27T12:30:39.282Z,4.53
2023-04-27T12:33:11.058Z,4.38
2023-04-27T12:35:38.846Z,4.70
2023-04-27T12:38:05.820Z,4.15
2023-04-27T12:40:33.982Z,5.35
2023-04-27T12:43:01.535Z,4.55
2023-04-27T12:45:28.839Z,4.70
2023-04-27T12:48:03.565Z,5.85
2023-04-27T12:50:32.765Z,3.97
2023-04-27T12:53:00.294Z,4.32
2023-04-27T12:55:33.673Z,4.35
2023-04-27T12:58:02.216Z,4.47
2023-04-27T13:00:29.960Z,3.72
2023-04-27T13:02:58.552Z,3.92
2023-04-27T13:05:26.491Z,4.72
2023-04-27T13:07:53.835Z,4.55
2023-04-27T13:10:21.057Z,4.10
2023-04-27T13:12:48.102Z,4.68
2023-04-27T13:15:15.087Z,4.07
2023-04-27T13:17:43.641Z,4.00
2023-04-27T13:20:11.798Z,4.20
2023-04-27T13:22:40.847Z,4.30
2023-04-27T13:25:09.512Z,3.63
2023-04-27T13:27:36.871Z,4.30
2023-04-27T13:30:05.326Z,4.10
2023-04-27T13:32:32.630Z,3.72
2023-04-27T13:34:59.721Z,4.28
2023-04-27T13:37:27.141Z,4.75
2023-04-27T13:39:54.125Z,5.18
2023-04-27T13:42:21.732Z,4.57
2023-04-27T13:44:48.693Z,3.97
2023-04-27T13:47:15.792Z,4.18
2023-04-27T13:49:42.790Z,4.90
2023-04-27T13:52:10.044Z,4.53
2023-04-27T13:54:37.288Z,4.40
2023-04-27T13:57:04.415Z,4.90
2023-04-27T13:59:31.503Z,5.50
2023-04-27T14:01:58.579Z,4.30
2023-04-27T14:04:25.869Z,3.97
2023-04-27T14:06:52.885Z,4.40
2023-04-27T14:09:20.416Z,3.42
2023-04-27T14:11:56.538Z,3.58
2023-04-27T14:14:24.706Z,3.20
2023-04-27T14:16:52.592Z,2.90
2023-04-27T14:19:20.677Z,3.15
2023-04-27T14:21:49.921Z,3.60
2023-04-27T14:24:17.059Z,3.22
2023-04-27T14:26:44.381Z,3.30
2023-04-27T14:29:11.971Z,3.67
2023-04-27T14:31:39.862Z,4.25
2023-04-27T14:34:08.190Z,2.90
2023-04-27T14:36:35.957Z,2.90
2023-04-27T14:39:05.707Z,2.85
2023-04-27T14:41:32.843Z,2.90
2023-04-27T14:43:59.802Z,3.30
2023-04-27T14:46:26.917Z,2.85
2023-04-27T14:48:53.938Z,4.10
2023-04-27T14:51:21.523Z,5.45
2023-04-27T14:53:48.581Z,12.00
2023-04-27T14:56:15.572Z,4.85
2023-04-27T14:58:42.512Z,4.00
2023-04-27T15:01:09.537Z,3.65
2023-04-27T15:03:36.724Z,3.08
2023-04-27T15:06:05.292Z,3.13
2023-04-27T15:08:34.139Z,2.92
2023-04-27T15:11:03.800Z,2.90
2023-04-27T15:13:31.182Z,2.63
2023-04-27T15:15:59.506Z,2.90
2023-04-27T15:18:26.790Z,2.80
2023-04-27T15:20:54.710Z,2.47
2023-04-27T15:23:22.803Z,2.88
2023-04-27T15:25:51.907Z,2.85
2023-04-27T15:28:19.130Z,3.00
2023-04-27T15:30:46.501Z,2.92
2023-04-27T15:33:14.746Z,2.50
2023-04-27T15:35:42.127Z,2.30
2023-04-27T15:38:11.221Z,3.13
2023-04-27T15:40:38.680Z,2.63
2023-04-27T15:43:06.144Z,2.78
2023-04-27T15:45:33.502Z,2.80
2023-04-27T15:48:00.660Z,3.00
2023-04-27T15:50:27.714Z,3.08
2023-04-27T15:52:54.727Z,3.28
2023-04-27T15:55:22.425Z,2.95
2023-04-27T15:57:50.306Z,3.00
2023-04-27T16:00:19.056Z,2.75
2023-04-27T16:02:46.847Z,2.72
2023-04-27T16:05:14.924Z,3.08
2023-04-27T16:07:45.703Z,2.95
2023-04-27T16:10:13.412Z,2.97
2023-04-27T16:12:40.641Z,3.20
2023-04-27T16:15:10.969Z,2.78
2023-04-27T16:17:38.818Z,2.70
2023-04-27T16:20:06.909Z,2.80
2023-04-27T16:22:35.017Z,2.95
2023-04-27T16:25:02.408Z,2.80
2023-04-27T16:27:29.896Z,2.80
2023-04-27T16:29:56.973Z,2.83
2023-04-27T16:32:24.209Z,2.70
2023-04-27T16:34:51.323Z,4.88
2023-04-27T16:37:18.399Z,3.83
2023-04-27T16:39:45.655Z,3.20
2023-04-27T16:42:20.065Z,2.97
2023-04-27T16:44:47.466Z,3.03
2023-04-27T16:47:14.734Z,3.05
2023-04-27T16:49:44.964Z,3.13
2023-04-27T16:52:12.239Z,2.88
2023-04-27T16:54:39.174Z,2.97
2023-04-27T16:57:07.820Z,3.40
2023-04-27T16:59:34.878Z,2.60
2023-04-27T17:02:16.331Z,2.80
2023-04-27T17:04:48.452Z,2.97
2023-04-27T17:07:15.480Z,2.78
2023-04-27T17:09:42.660Z,3.38
2023-04-27T17:12:12.370Z,2.95
2023-04-27T17:14:39.636Z,2.75
2023-04-27T17:17:07.252Z,3.10
2023-04-27T17:19:34.467Z,2.72
2023-04-27T17:22:01.527Z,2.75
2023-04-27T17:24:28.671Z,2.88
2023-04-27T17:26:55.753Z,2.92
2023-04-27T17:29:22.806Z,2.75
2023-04-27T17:31:50.531Z,2.90
2023-04-27T17:34:18.034Z,3.15
2023-04-27T17:36:46.112Z,3.20
2023-04-27T17:39:14.663Z,2.97
2023-04-27T17:41:41.988Z,2.50
2023-04-27T17:44:09.028Z,3.00
2023-04-27T17:46:37.672Z,2.85
2023-04-27T17:49:04.924Z,3.10
2023-04-27T17:51:33.366Z,3.22
2023-04-27T17:54:00.563Z,4.35
2023-04-27T17:56:27.642Z,4.60
2023-04-27T17:58:54.690Z,4.18
2023-04-27T18:01:24.282Z,4.13
2023-04-27T18:03:52.348Z,3.95
2023-04-27T18:06:21.249Z,4.40
2023-04-27T18:08:49.199Z,4.40
2023-04-27T18:11:16.401Z,4.18
2023-04-27T18:13:43.453Z,4.25
2023-04-27T18:16:10.597Z,4.80
2023-04-27T18:18:37.710Z,4.55
2023-04-27T18:21:06.691Z,4.43
2023-04-27T18:23:38.068Z,4.72
2023-04-27T18:26:05.776Z,5.22
2023-04-27T18:28:32.729Z,5.13
2023-04-27T18:31:00.334Z,5.30
2023-04-27T18:33:29.397Z,5.75
2023-04-27T18:35:56.520Z,7.03
2023-04-27T18:38:23.561Z,7.20
2023-04-27T18:40:50.648Z,7.50
2023-04-27T18:43:17.629Z,6.57
2023-04-27T18:45:44.752Z,7.63
2023-04-27T18:48:11.724Z,6.40
2023-04-27T18:50:38.763Z,6.30
2023-04-27T18:53:07.235Z,5.82
2023-04-27T18:55:34.281Z,5.95
2023-04-27T18:58:01.901Z,5.70
2023-04-27T19:00:31.063Z,4.80
2023-04-27T19:02:58.233Z,5.25
2023-04-27T19:05:25.594Z,6.22
2023-04-27T19:07:52.655Z,6.20
2023-04-27T19:10:19.674Z,8.02
2023-04-27T19:12:46.663Z,8.32
2023-04-27T19:15:14.459Z,7.40
2023-04-27T19:17:41.761Z,7.90
2023-04-27T19:20:09.436Z,6.82
2023-04-27T19:22:37.052Z,9.63
2023-04-27T19:25:04.925Z,8.65
2023-04-27T19:27:32.155Z,10.10
2023-04-27T19:29:59.255Z,8.60
2023-04-27T19:32:27.529Z,8.02
2023-04-27T19:34:56.535Z,9.38
2023-04-27T19:37:25.075Z,9.20
2023-04-27T19:39:52.337Z,9.98
2023-04-27T19:42:19.379Z,10.98
2023-04-27T19:44:46.425Z,10.85
2023-04-27T19:47:13.387Z,10.32
2023-04-27T19:49:40.384Z,9.15
2023-04-27T19:52:07.726Z,8.77
2023-04-27T19:54:37.635Z,8.32
2023-04-27T19:57:04.754Z,7.25
2023-04-27T19:59:33.500Z,7.78
2023-04-27T20:02:00.693Z,7.28
2023-04-27T20:04:27.827Z,7.60
2023-04-27T20:06:56.573Z,7.70
2023-04-27T20:09:23.490Z,8.27
2023-04-27T20:11:50.514Z,7.90
2023-04-27T20:14:17.853Z,8.05
2023-04-27T20:16:45.279Z,7.95
2023-04-27T20:19:12.554Z,7.25
2023-04-27T20:21:39.625Z,7.28
2023-04-27T20:24:07.276Z,7.60
2023-04-27T20:26:34.274Z,6.60
2023-04-27T20:29:01.353Z,6.97
2023-04-27T20:31:28.400Z,6.80
2023-04-27T20:33:55.405Z,5.35
2023-04-27T20:36:23.266Z,5.13
2023-04-27T20:38:50.420Z,5.22
2023-04-27T20:41:17.752Z,5.50
2023-04-27T20:43:45.645Z,5.05
2023-04-27T20:46:13.200Z,5.57
2023-04-27T20:48:40.312Z,6.07
2023-04-27T20:51:07.395Z,5.50
2023-04-27T20:53:34.408Z,6.20
2023-04-27T20:56:01.369Z,5.88
2023-04-27T20:58:28.526Z,5.57
2023-04-27T21:00:55.603Z,6.07
2023-04-27T21:03:22.854Z,6.53
2023-04-27T21:05:50.205Z,6.88
2023-04-27T21:08:17.268Z,6.18
2023-04-27T21:10:44.628Z,6.43
2023-04-27T21:13:11.883Z,6.07
2023-04-27T21:15:38.961Z,6.20
2023-04-27T21:18:07.863Z,6.47
2023-04-27T21:20:36.575Z,6.15
2023-04-27T21:23:03.612Z,6.15
2023-04-27T21:25:30.917Z,6.35
2023-04-27T21:27:57.986Z,6.05
2023-04-27T21:30:25.015Z,5.85
2023-04-27T21:32:52.030Z,6.28
2023-04-27T21:35:19.152Z,6.70
2023-04-27T21:37:46.105Z,6.65
2023-04-27T21:40:13.416Z,6.68
2023-04-27T21:42:40.866Z,6.55
2023-04-27T21:45:08.510Z,5.68
2023-04-27T21:47:35.702Z,5.97
2023-04-27T21:50:03.335Z,6.18
2023-04-27T21:52:30.268Z,6.30
2023-04-27T21:54:57.331Z,6.53
2023-04-27T21:57:24.351Z,6.15
2023-04-27T21:59:51.365Z,6.63
2023-04-27T22:02:18.325Z,6.18
2023-04-27T22:04:45.536Z,6.32
2023-04-27T22:07:12.763Z,6.35
2023-04-27T22:09:39.747Z,5.90
2023-04-27T22:12:07.062Z,6.72
2023-04-27T22:14:34.111Z,6.13
2023-04-27T22:17:02.070Z,7.40
2023-04-27T22:19:29.187Z,6.28
2023-04-27T22:21:56.727Z,6.22
2023-04-27T22:24:24.059Z,6.03
2023-04-27T22:26:51.086Z,5.97
2023-04-27T22:29:18.230Z,6.38
2023-04-27T22:31:45.881Z,6.25
2023-04-27T22:34:13.622Z,6.28
2023-04-27T22:36:41.349Z,6.45
2023-04-27T22:39:09.022Z,5.95
2023-04-27T22:41:36.226Z,7.22
2023-04-27T22:44:03.286Z,6.25
2023-04-27T22:46:30.571Z,6.60
2023-04-27T22:48:58.697Z,6.35
2023-04-27T22:51:27.595Z,7.35
2023-04-27T22:53:54.860Z,7.25
2023-04-27T22:56:22.562Z,7.22
2023-04-27T22:58:49.761Z,7.13
2023-04-27T23:01:17.004Z,6.93
2023-04-27T23:03:44.329Z,7.15
2023-04-27T23:06:14.494Z,7.07
2023-04-27T23:08:46.995Z,7.43
2023-04-27T23:11:15.548Z,7.60
2023-04-27T23:13:42.788Z,7.70
2023-04-27T23:16:10.139Z,7.18
2023-04-27T23:18:37.298Z,7.30
2023-04-27T23:21:04.464Z,7.20
2023-04-27T23:23:31.686Z,7.07
2023-04-27T23:25:58.671Z,7.25
2023-04-27T23:28:25.579Z,7.43
2023-04-27T23:30:54.747Z,6.65
2023-04-27T23:33:22.313Z,6.95
2023-04-27T23:35:49.368Z,6.60
2023-04-27T23:38:16.541Z,6.28
2023-04-27T23:40:43.552Z,6.20
2023-04-27T23:43:10.602Z,5.88
2023-04-27T23:45:37.789Z,5.88
2023-04-27T23:48:05.294Z,6.00
2023-04-27T23:50:32.798Z,6.13
2023-04-27T23:52:59.849Z,5.32
2023-04-27T23:55:26.917Z,5.70
2023-04-27T23:57:53.911Z,5.72
